Cape Henlopen — WM5958 — position and weather

sailwx.info

Track history (hours):
 
Tides and Currents Weather Stations Pressure Air Temp Water Temp Dewpoint Dewpoint Depression Visibility Wind Speed Wind Dir Waves Ship Positions

Cape Henlopen

Owner: CROSS SOUND FERRY SERV INC, NEW LONDON, CT. More information available from US FCC via Universal Licensing System and Coast Guard Vessel Documentation Center.

Last reported at 2018-Jul-22 01:18 UTC. Time now 2018-Jul-22 06:48 UTC.
Position N 41°18' W 072°05'.

Length 94 m; draft 2.7 m.

Type: Passenger vessel. MMSI: 367354360.

Date/timePositionNaut miles runAvg speedWind from/ knotsBaromVisibWave heightAir tempDewpointWater temp
2018-Jul-22 01:18N 41°18' W 072°05'311.1
2018-Jul-22 01:00N 41°16' W 072°08'611.4
2018-Jul-22 00:26N 41°10' W 072°13'1 2.7
2018-Jul-21 23:54N 41°09' W 072°14'1 1.7
2018-Jul-21 23:17N 41°10' W 072°13'310.4
2018-Jul-21 22:59N 41°13' W 072°12'5 2.6
2018-Jul-21 20:59N 41°16' W 072°07'510.4
2018-Jul-21 20:30N 41°12' W 072°11'4 6.9
2018-Jul-21 19:56N 41°09' W 072°14'1 1.2
2018-Jul-21 19:13N 41°10' W 072°13'310.9
2018-Jul-21 18:55N 41°13' W 072°12'4 2.1
2018-Jul-21 16:50N 41°16' W 072°07'412.7
2018-Jul-21 16:30N 41°12' W 072°11'3 2.4
2018-Jul-21 15:21N 41°10' W 072°13'4 9.4
2018-Jul-21 14:56N 41°13' W 072°10'4 2.3
2018-Jul-21 13:01N 41°16' W 072°06'012.6
2018-Jul-21 13:00N 41°16' W 072°06'713.0
2018-Jul-21 12:30N 41°12' W 072°12'2 0.2
2018-Jul-21 03:09N 41°10' W 072°13'2 9.8
2018-Jul-21 02:54N 41°12' W 072°13'9 5.3
2018-Jul-21 01:10N 41°19' W 072°05'212.0
2018-Jul-21 01:00N 41°17' W 072°06'713.4
2018-Jul-21 00:30N 41°12' W 072°12'2 1.9
2018-Jul-20 23:28N 41°11' W 072°13'7 3.1
2018-Jul-20 21:09N 41°16' W 072°07'311.0
2018-Jul-20 20:53N 41°14' W 072°10'4 2.8
2018-Jul-20 19:21N 41°11' W 072°14'612.6
2018-Jul-20 18:50N 41°16' W 072°08'4 2.6
2018-Jul-20 17:20N 41°19' W 072°05'411.3
2018-Jul-20 17:00N 41°16' W 072°07'712.4
2018-Jul-20 16:28N 41°11' W 072°13'1 1.2
2018-Jul-20 15:28N 41°09' W 072°13'5 9.3
2018-Jul-20 14:55N 41°14' W 072°09'3 1.4
2018-Jul-20 12:53N 41°16' W 072°07'513.3
2018-Jul-20 12:30N 41°12' W 072°12'2 0.2
2018-Jul-20 01:16N 41°11' W 072°14'4 9.3
2018-Jul-20 00:52N 41°13' W 072°10'6 3.5
2018-Jul-19 23:07N 41°18' W 072°05'112.4
2018-Jul-19 23:00N 41°17' W 072°06'713.3
2018-Jul-19 22:28N 41°11' W 072°13'2 2.7
2018-Jul-19 21:35N 41°09' W 072°14'111.3
2018-Jul-19 21:30N 41°10' W 072°13'10 4.4
2018-Jul-19 19:19N 41°18' W 072°06'411.5
2018-Jul-19 19:00N 41°15' W 072°09'6 4.0
2018-Jul-19 17:21N 41°09' W 072°13'410.1
2018-Jul-19 16:59N 41°13' W 072°12'5 2.6
2018-Jul-19 15:04N 41°16' W 072°07'112.2
2018-Jul-19 14:59N 41°16' W 072°08'612.8
2018-Jul-19 14:29N 41°11' W 072°13'2 2.1
2018-Jul-19 13:29N 41°09' W 072°14'4 7.7
2018-Jul-19 13:00N 41°12' W 072°12'8 0.7
2018-Jul-19 01:06N 41°18' W 072°05'111.0
2018-Jul-19 01:01N 41°17' W 072°06'713.0
2018-Jul-19 00:30N 41°12' W 072°12'3 2.9
2018-Jul-18 23:25N 41°09' W 072°13'4 9.5
2018-Jul-18 22:58N 41°13' W 072°11'3 1.5
2018-Jul-18 20:52N 41°15' W 072°08'412.2
2018-Jul-18 20:30N 41°12' W 072°12'3 2.2
2018-Jul-18 19:19N 41°10' W 072°13'411.0
2018-Jul-18 18:55N 41°14' W 072°11'3 1.2
2018-Jul-18 16:52N 41°15' W 072°08'410.5
2018-Jul-18 16:28N 41°12' W 072°12'2 0.6
2018-Jul-18 12:41N 41°14' W 072°09'213.9
2018-Jul-18 12:31N 41°12' W 072°12'2 0.2
2018-Jul-18 01:15N 41°11' W 072°13'2 9.9
2018-Jul-18 01:00N 41°12' W 072°11'5 2.2
2018-Jul-17 22:51N 41°16' W 072°06'514.3
2018-Jul-17 22:30N 41°12' W 072°11'2 2.0
2018-Jul-17 21:20N 41°11' W 072°14'3 9.5
2018-Jul-17 21:00N 41°13' W 072°11'1 0.6
2018-Jul-17 18:39N 41°14' W 072°10'211.1
2018-Jul-17 18:29N 41°12' W 072°11'1 0.2
2018-Jul-17 14:27N 41°12' W 072°12'0 0.3
2018-Jul-17 13:07N 41°12' W 072°12'2 9.6
2018-Jul-17 12:57N 41°13' W 072°10'4 0.3
2018-Jul-17 00:53N 41°16' W 072°06'613.3
2018-Jul-17 00:28N 41°12' W 072°12'2 1.8
2018-Jul-16 23:17N 41°11' W 072°14'4 9.4
2018-Jul-16 22:53N 41°13' W 072°10'3 1.5
2018-Jul-16 20:56N 41°15' W 072°07'6 4.2
2018-Jul-16 19:25N 41°11' W 072°13'6 2.2
2018-Jul-16 16:52N 41°15' W 072°09'4 1.2
2018-Jul-16 13:12N 41°18' W 072°05'311.1
2018-Jul-16 12:56N 41°16' W 072°07'8 0.8
2018-Jul-16 03:15N 41°09' W 072°14'310.1
2018-Jul-16 02:59N 41°12' W 072°13'7 3.8
2018-Jul-16 01:09N 41°17' W 072°06'211.2
2018-Jul-16 00:59N 41°15' W 072°08'7 4.9
2018-Jul-15 23:30N 41°09' W 072°13'5 9.8
2018-Jul-15 23:00N 41°14' W 072°10'2 1.2
2018-Jul-15 20:57N 41°15' W 072°08'612.6
2018-Jul-15 20:26N 41°10' W 072°13'0 0.3
2018-Jul-15 19:25N 41°10' W 072°13'7 2.7
2018-Jul-15 16:51N 41°16' W 072°08'410.5
2018-Jul-15 16:28N 41°12' W 072°12'3 2.9
2018-Jul-15 15:18N 41°09' W 072°14'411.2
2018-Jul-15 14:56N 41°13' W 072°11'6 3.2
2018-Jul-15 13:10N 41°17' W 072°06'211.1
2018-Jul-15 12:58N 41°15' W 072°07'611.7
2018-Jul-15 12:25N 41°11' W 072°13'7 0.5
2018-Jul-14 22:52N 41°15' W 072°07'513.3
2018-Jul-14 22:30N 41°12' W 072°12'2 1.7
2018-Jul-14 21:18N 41°11' W 072°14'4 9.6
2018-Jul-14 20:56N 41°13' W 072°10'3 1.5
2018-Jul-14 18:50N 41°15' W 072°07'513.7
2018-Jul-14 18:30N 41°12' W 072°12'2 1.8
2018-Jul-14 17:18N 41°11' W 072°14'411.4
2018-Jul-14 17:00N 41°14' W 072°11'4 2.0
2018-Jul-14 15:00N 41°16' W 072°07'510.0
2018-Jul-14 14:30N 41°13' W 072°12'3 1.8
2018-Jul-14 13:08N 41°11' W 072°14'212.9
2018-Jul-14 13:00N 41°12' W 072°12'4 0.4
2018-Jul-14 02:37N 41°15' W 072°08'110.4
2018-Jul-14 02:29N 41°14' W 072°10'5 3.5
2018-Jul-14 01:11N 41°11' W 072°14'313.6
2018-Jul-14 00:55N 41°13' W 072°11'5 2.7
2018-Jul-13 23:05N 41°17' W 072°06'111.2
2018-Jul-13 23:00N 41°16' W 072°07'612.3
2018-Jul-13 22:30N 41°12' W 072°13'2 2.2
2018-Jul-13 21:36N 41°10' W 072°13'111.0
2018-Jul-13 21:29N 41°11' W 072°14'8 3.1
2018-Jul-13 19:04N 41°16' W 072°06'112.9
2018-Jul-13 19:00N 41°16' W 072°07'7 4.1
2018-Jul-13 17:22N 41°11' W 072°13'4 9.9
2018-Jul-13 17:00N 41°14' W 072°11'6 3.2
2018-Jul-13 15:09N 41°18' W 072°05'212.0
2018-Jul-13 14:58N 41°16' W 072°07'510.8
2018-Jul-13 14:30N 41°12' W 072°11'3 2.5
2018-Jul-13 13:15N 41°10' W 072°13'310.1
2018-Jul-13 12:58N 41°13' W 072°13'8 0.7
2018-Jul-13 01:13N 41°18' W 072°05'311.3
2018-Jul-13 01:00N 41°16' W 072°07'510.2
2018-Jul-13 00:30N 41°12' W 072°12'3 2.8
2018-Jul-12 23:14N 41°09' W 072°14'2 8.9
2018-Jul-12 23:00N 41°11' W 072°13'713.0
2018-Jul-12 22:30N 41°16' W 072°07'1 0.7
2018-Jul-12 20:58N 41°17' W 072°06'613.0
2018-Jul-12 20:30N 41°12' W 072°11'2 1.9
2018-Jul-12 19:20N 41°11' W 072°13'3 9.1
2018-Jul-12 18:57N 41°13' W 072°10'5 2.7
2018-Jul-12 17:00N 41°17' W 072°06'713.5
2018-Jul-12 16:30N 41°12' W 072°12'3 0.8
2018-Jul-12 12:47N 41°14' W 072°09'3 9.9
2018-Jul-12 12:29N 41°12' W 072°12'  
Track history (hours):
 
Tides and Currents Weather Stations Pressure Air Temp Water Temp Dewpoint Dewpoint Depression Visibility Wind Speed Wind Dir Waves Ship Positions

Cape Henlopen

Owner: CROSS SOUND FERRY SERV INC, NEW LONDON, CT. More information available from US FCC via Universal Licensing System and Coast Guard Vessel Documentation Center.

Last reported at 2018-Jul-22 01:18 UTC. Time now 2018-Jul-22 06:48 UTC.
Position N 41°18' W 072°05'.

Length 94 m; draft 2.7 m.

Type: Passenger vessel. MMSI: 367354360.

Date/timePositionNaut miles runAvg speedWind from/ knotsBaromVisibWave heightAir tempDewpointWater temp
2018-Jul-22 01:18N 41°18' W 072°05'311.1
2018-Jul-22 01:00N 41°16' W 072°08'611.4
2018-Jul-22 00:26N 41°10' W 072°13'1 2.7
2018-Jul-21 23:54N 41°09' W 072°14'1 1.7
2018-Jul-21 23:17N 41°10' W 072°13'310.4
2018-Jul-21 22:59N 41°13' W 072°12'5 2.6
2018-Jul-21 20:59N 41°16' W 072°07'510.4
2018-Jul-21 20:30N 41°12' W 072°11'4 6.9
2018-Jul-21 19:56N 41°09' W 072°14'1 1.2
2018-Jul-21 19:13N 41°10' W 072°13'310.9
2018-Jul-21 18:55N 41°13' W 072°12'4 2.1
2018-Jul-21 16:50N 41°16' W 072°07'412.7
2018-Jul-21 16:30N 41°12' W 072°11'3 2.4
2018-Jul-21 15:21N 41°10' W 072°13'4 9.4
2018-Jul-21 14:56N 41°13' W 072°10'4 2.3
2018-Jul-21 13:01N 41°16' W 072°06'012.6
2018-Jul-21 13:00N 41°16' W 072°06'713.0
2018-Jul-21 12:30N 41°12' W 072°12'2 0.2
2018-Jul-21 03:09N 41°10' W 072°13'2 9.8
2018-Jul-21 02:54N 41°12' W 072°13'9 5.3
2018-Jul-21 01:10N 41°19' W 072°05'212.0
2018-Jul-21 01:00N 41°17' W 072°06'713.4
2018-Jul-21 00:30N 41°12' W 072°12'2 1.9
2018-Jul-20 23:28N 41°11' W 072°13'7 3.1
2018-Jul-20 21:09N 41°16' W 072°07'311.0
2018-Jul-20 20:53N 41°14' W 072°10'4 2.8
2018-Jul-20 19:21N 41°11' W 072°14'612.6
2018-Jul-20 18:50N 41°16' W 072°08'4 2.6
2018-Jul-20 17:20N 41°19' W 072°05'411.3
2018-Jul-20 17:00N 41°16' W 072°07'712.4
2018-Jul-20 16:28N 41°11' W 072°13'1 1.2
2018-Jul-20 15:28N 41°09' W 072°13'5 9.3
2018-Jul-20 14:55N 41°14' W 072°09'3 1.4
2018-Jul-20 12:53N 41°16' W 072°07'513.3
2018-Jul-20 12:30N 41°12' W 072°12'2 0.2
2018-Jul-20 01:16N 41°11' W 072°14'4 9.3
2018-Jul-20 00:52N 41°13' W 072°10'6 3.5
2018-Jul-19 23:07N 41°18' W 072°05'112.4
2018-Jul-19 23:00N 41°17' W 072°06'713.3
2018-Jul-19 22:28N 41°11' W 072°13'2 2.7
2018-Jul-19 21:35N 41°09' W 072°14'111.3
2018-Jul-19 21:30N 41°10' W 072°13'10 4.4
2018-Jul-19 19:19N 41°18' W 072°06'411.5
2018-Jul-19 19:00N 41°15' W 072°09'6 4.0
2018-Jul-19 17:21N 41°09' W 072°13'410.1
2018-Jul-19 16:59N 41°13' W 072°12'5 2.6
2018-Jul-19 15:04N 41°16' W 072°07'112.2
2018-Jul-19 14:59N 41°16' W 072°08'612.8
2018-Jul-19 14:29N 41°11' W 072°13'2 2.1
2018-Jul-19 13:29N 41°09' W 072°14'4 7.7
2018-Jul-19 13:00N 41°12' W 072°12'8 0.7
2018-Jul-19 01:06N 41°18' W 072°05'111.0
2018-Jul-19 01:01N 41°17' W 072°06'713.0
2018-Jul-19 00:30N 41°12' W 072°12'3 2.9
2018-Jul-18 23:25N 41°09' W 072°13'4 9.5
2018-Jul-18 22:58N 41°13' W 072°11'3 1.5
2018-Jul-18 20:52N 41°15' W 072°08'412.2
2018-Jul-18 20:30N 41°12' W 072°12'3 2.2
2018-Jul-18 19:19N 41°10' W 072°13'411.0
2018-Jul-18 18:55N 41°14' W 072°11'3 1.2
2018-Jul-18 16:52N 41°15' W 072°08'410.5
2018-Jul-18 16:28N 41°12' W 072°12'2 0.6
2018-Jul-18 12:41N 41°14' W 072°09'213.9
2018-Jul-18 12:31N 41°12' W 072°12'2 0.2
2018-Jul-18 01:15N 41°11' W 072°13'2 9.9
2018-Jul-18 01:00N 41°12' W 072°11'5 2.2
2018-Jul-17 22:51N 41°16' W 072°06'514.3
2018-Jul-17 22:30N 41°12' W 072°11'2 2.0
2018-Jul-17 21:20N 41°11' W 072°14'3 9.5
2018-Jul-17 21:00N 41°13' W 072°11'1 0.6
2018-Jul-17 18:39N 41°14' W 072°10'211.1
2018-Jul-17 18:29N 41°12' W 072°11'1 0.2
2018-Jul-17 14:27N 41°12' W 072°12'0 0.3
2018-Jul-17 13:07N 41°12' W 072°12'2 9.6
2018-Jul-17 12:57N 41°13' W 072°10'4 0.3
2018-Jul-17 00:53N 41°16' W 072°06'613.3
2018-Jul-17 00:28N 41°12' W 072°12'2 1.8
2018-Jul-16 23:17N 41°11' W 072°14'4 9.4
2018-Jul-16 22:53N 41°13' W 072°10'3 1.5
2018-Jul-16 20:56N 41°15' W 072°07'6 4.2
2018-Jul-16 19:25N 41°11' W 072°13'6 2.2
2018-Jul-16 16:52N 41°15' W 072°09'4 1.2
2018-Jul-16 13:12N 41°18' W 072°05'311.1
2018-Jul-16 12:56N 41°16' W 072°07'8 0.8
2018-Jul-16 03:15N 41°09' W 072°14'310.1
2018-Jul-16 02:59N 41°12' W 072°13'7 3.8
2018-Jul-16 01:09N 41°17' W 072°06'211.2
2018-Jul-16 00:59N 41°15' W 072°08'7 4.9
2018-Jul-15 23:30N 41°09' W 072°13'5 9.8
2018-Jul-15 23:00N 41°14' W 072°10'2 1.2
2018-Jul-15 20:57N 41°15' W 072°08'612.6
2018-Jul-15 20:26N 41°10' W 072°13'0 0.3
2018-Jul-15 19:25N 41°10' W 072°13'7 2.7
2018-Jul-15 16:51N 41°16' W 072°08'410.5
2018-Jul-15 16:28N 41°12' W 072°12'3 2.9
2018-Jul-15 15:18N 41°09' W 072°14'411.2
2018-Jul-15 14:56N 41°13' W 072°11'6 3.2
2018-Jul-15 13:10N 41°17' W 072°06'211.1
2018-Jul-15 12:58N 41°15' W 072°07'611.7
2018-Jul-15 12:25N 41°11' W 072°13'7 0.5
2018-Jul-14 22:52N 41°15' W 072°07'513.3
2018-Jul-14 22:30N 41°12' W 072°12'2 1.7
2018-Jul-14 21:18N 41°11' W 072°14'4 9.6
2018-Jul-14 20:56N 41°13' W 072°10'3 1.5
2018-Jul-14 18:50N 41°15' W 072°07'513.7
2018-Jul-14 18:30N 41°12' W 072°12'2 1.8
2018-Jul-14 17:18N 41°11' W 072°14'411.4
2018-Jul-14 17:00N 41°14' W 072°11'4 2.0
2018-Jul-14 15:00N 41°16' W 072°07'510.0
2018-Jul-14 14:30N 41°13' W 072°12'3 1.8
2018-Jul-14 13:08N 41°11' W 072°14'212.9
2018-Jul-14 13:00N 41°12' W 072°12'4 0.4
2018-Jul-14 02:37N 41°15' W 072°08'110.4
2018-Jul-14 02:29N 41°14' W 072°10'5 3.5
2018-Jul-14 01:11N 41°11' W 072°14'313.6
2018-Jul-14 00:55N 41°13' W 072°11'5 2.7
2018-Jul-13 23:05N 41°17' W 072°06'111.2
2018-Jul-13 23:00N 41°16' W 072°07'612.3
2018-Jul-13 22:30N 41°12' W 072°13'2 2.2
2018-Jul-13 21:36N 41°10' W 072°13'111.0
2018-Jul-13 21:29N 41°11' W 072°14'8 3.1
2018-Jul-13 19:04N 41°16' W 072°06'112.9
2018-Jul-13 19:00N 41°16' W 072°07'7 4.1
2018-Jul-13 17:22N 41°11' W 072°13'4 9.9
2018-Jul-13 17:00N 41°14' W 072°11'6 3.2
2018-Jul-13 15:09N 41°18' W 072°05'212.0
2018-Jul-13 14:58N 41°16' W 072°07'510.8
2018-Jul-13 14:30N 41°12' W 072°11'3 2.5
2018-Jul-13 13:15N 41°10' W 072°13'310.1
2018-Jul-13 12:58N 41°13' W 072°13'8 0.7
2018-Jul-13 01:13N 41°18' W 072°05'311.3
2018-Jul-13 01:00N 41°16' W 072°07'510.2
2018-Jul-13 00:30N 41°12' W 072°12'3 2.8
2018-Jul-12 23:14N 41°09' W 072°14'2 8.9
2018-Jul-12 23:00N 41°11' W 072°13'713.0
2018-Jul-12 22:30N 41°16' W 072°07'1 0.7
2018-Jul-12 20:58N 41°17' W 072°06'613.0
2018-Jul-12 20:30N 41°12' W 072°11'2 1.9
2018-Jul-12 19:20N 41°11' W 072°13'3 9.1
2018-Jul-12 18:57N 41°13' W 072°10'5 2.7
2018-Jul-12 17:00N 41°17' W 072°06'713.5
2018-Jul-12 16:30N 41°12' W 072°12'3 0.8
2018-Jul-12 12:47N 41°14' W 072°09'3 9.9
2018-Jul-12 12:29N 41°12' W 072°12'  

Dump ship's entire track history